sensor_id;sensor_type;location;lat;lon;timestamp;pressure;altitude;pressure_sealevel;temperature;humidity
1776;BME280;885;42.626;23.200;2023-02-15T00:01:33;155018.03;;;1.73;98.31
1776;BME280;885;42.626;23.200;2023-02-15T00:04:03;155021.84;;;1.74;97.82
1776;BME280;885;42.626;23.200;2023-02-15T00:06:30;155010.38;;;1.70;97.25
1776;BME280;885;42.626;23.200;2023-02-15T00:08:57;154645.75;;;1.70;96.86
1776;BME280;885;42.626;23.200;2023-02-15T00:11:24;154648.28;;;1.71;96.22
1776;BME280;885;42.626;23.200;2023-02-15T00:14:09;154658.47;;;1.75;95.77
1776;BME280;885;42.626;23.200;2023-02-15T00:16:37;154661.06;;;1.76;96.09
1776;BME280;885;42.626;23.200;2023-02-15T00:19:06;154668.69;;;1.79;96.59
1776;BME280;885;42.626;23.200;2023-02-15T00:21:34;154675.06;;;1.81;96.42
1776;BME280;885;42.626;23.200;2023-02-15T00:24:02;154655.94;;;1.74;96.66
1776;BME280;885;42.626;23.200;2023-02-15T00:26:29;154649.56;;;1.71;96.36
1776;BME280;885;42.626;23.200;2023-02-15T00:28:57;155026.97;;;1.76;97.16
1776;BME280;885;42.626;23.200;2023-02-15T00:31:25;155026.97;;;1.76;96.67
1776;BME280;885;42.626;23.200;2023-02-15T00:33:52;154667.38;;;1.78;96.28
1776;BME280;885;42.626;23.200;2023-02-15T00:36:20;154270.94;;;1.66;96.36
1776;BME280;885;42.626;23.200;2023-02-15T00:38:46;154255.66;;;1.59;96.35
1776;BME280;885;42.626;23.200;2023-02-15T00:41:13;154634.25;;;1.65;97.09
1776;BME280;885;42.626;23.200;2023-02-15T00:43:40;154232.81;;;1.50;96.97
1776;BME280;885;42.626;23.200;2023-02-15T00:46:07;154589.63;;;1.47;98.43
1776;BME280;885;42.626;23.200;2023-02-15T00:48:33;154978.44;;;1.57;98.11
1776;BME280;885;42.626;23.200;2023-02-15T00:51:00;154987.38;;;1.60;98.06
1776;BME280;885;42.626;23.200;2023-02-15T00:53:29;154606.19;;;1.54;97.27
1776;BME280;885;42.626;23.200;2023-02-15T00:55:57;154982.25;;;1.58;97.69
1776;BME280;885;42.626;23.200;2023-02-15T00:58:24;155372.47;;;1.69;97.72
1776;BME280;885;42.626;23.200;2023-02-15T01:00:51;155367.34;;;1.67;98.41
1776;BME280;885;42.626;23.200;2023-02-15T01:03:19;154978.44;;;1.57;97.32
1776;BME280;885;42.626;23.200;2023-02-15T01:05:48;155362.22;;;1.65;98.19
1776;BME280;885;42.626;23.200;2023-02-15T01:08:15;155382.72;;;1.73;97.75
1776;BME280;885;42.626;23.200;2023-02-15T01:10:44;155006.53;;;1.68;97.24
1776;BME280;885;42.626;23.200;2023-02-15T01:13:13;155382.72;;;1.73;96.71
1776;BME280;885;42.626;23.200;2023-02-15T01:15:40;155389.13;;;1.75;97.83
1776;BME280;885;42.626;23.200;2023-02-15T01:18:07;155400.69;;;1.80;96.99
1776;BME280;885;42.626;23.200;2023-02-15T01:20:35;155372.47;;;1.69;97.94
1776;BME280;885;42.626;23.200;2023-02-15T01:23:04;155359.63;;;1.63;97.92
1776;BME280;885;42.626;23.200;2023-02-15T01:25:32;155364.75;;;1.66;98.68
1776;BME280;885;42.626;23.200;2023-02-15T01:28:01;155357.09;;;1.63;98.45
1776;BME280;885;42.626;23.200;2023-02-15T01:30:28;155729.44;;;1.66;98.77
1776;BME280;885;42.626;23.200;2023-02-15T01:32:55;155346.84;;;1.58;98.21
1776;BME280;885;42.626;23.200;2023-02-15T01:35:22;155724.31;;;1.63;98.90
1776;BME280;885;42.626;23.200;2023-02-15T01:37:49;156099.34;;;1.68;99.18
1776;BME280;885;42.626;23.200;2023-02-15T01:40:17;155697.31;;;1.53;98.61
1776;BME280;885;42.626;23.200;2023-02-15T01:42:45;156060.69;;;1.52;100.00
1776;BME280;885;42.626;23.200;2023-02-15T01:45:20;156063.25;;;1.53;99.44
1776;BME280;885;42.626;23.200;2023-02-15T01:47:51;156438.25;;;1.57;100.00
1776;BME280;885;42.626;23.200;2023-02-15T01:50:23;156430.53;;;1.54;99.49
1776;BME280;885;42.626;23.200;2023-02-15T01:52:55;156424.06;;;1.52;99.89
1776;BME280;885;42.626;23.200;2023-02-15T01:55:24;156427.91;;;1.53;99.88
1776;BME280;885;42.626;23.200;2023-02-15T01:57:51;156814.63;;;1.62;99.86
1776;BME280;885;42.626;23.200;2023-02-15T02:00:21;156813.31;;;1.61;99.31
1776;BME280;885;42.626;23.200;2023-02-15T02:02:51;156790.03;;;1.52;99.21
1776;BME280;885;42.626;23.200;2023-02-15T02:05:20;156787.44;;;1.51;99.63
1776;BME280;885;42.626;23.200;2023-02-15T02:07:48;156808.13;;;1.59;99.99
1776;BME280;885;42.626;23.200;2023-02-15T02:10:20;156806.88;;;1.59;98.77
1776;BME280;885;42.626;23.200;2023-02-15T02:12:49;156800.41;;;1.56;99.61
1776;BME280;885;42.626;23.200;2023-02-15T02:15:17;156782.25;;;1.49;99.51
1776;BME280;885;42.626;23.200;2023-02-15T02:17:54;157149.59;;;1.50;99.75
1776;BME280;885;42.626;23.200;2023-02-15T02:23:33;157454.53;;;1.27;100.00
1776;BME280;885;42.626;23.200;2023-02-15T02:35:09;157902.53;;;1.59;99.86
1776;BME280;885;42.626;23.200;2023-02-15T02:37:47;158288.34;;;1.68;99.30
1776;BME280;885;42.626;23.200;2023-02-15T02:40:20;157907.75;;;1.61;99.25
1776;BME280;885;42.626;23.200;2023-02-15T02:42:55;157528.63;;;1.56;98.87
1776;BME280;885;42.626;23.200;2023-02-15T02:45:28;157513.00;;;1.50;99.15
1776;BME280;885;42.626;23.200;2023-02-15T02:48:01;157509.13;;;1.48;99.41
1776;BME280;885;42.626;23.200;2023-02-15T02:50:31;157099.00;;;1.31;100.00
1776;BME280;885;42.626;23.200;2023-02-15T02:52:59;157467.50;;;1.32;100.00
1776;BME280;885;42.626;23.200;2023-02-15T02:55:29;157810.00;;;1.24;100.00
1776;BME280;885;42.626;23.200;2023-02-15T02:58:00;158223.00;;;1.42;100.00
1776;BME280;885;42.626;23.200;2023-02-15T03:00:36;158238.69;;;1.48;100.00
1776;BME280;885;42.626;23.200;2023-02-15T03:03:07;158238.69;;;1.48;99.72
1776;BME280;885;42.626;23.200;2023-02-15T03:05:40;158613.97;;;1.52;100.00
1776;BME280;885;42.626;23.200;2023-02-15T03:08:08;158634.94;;;1.60;99.78
1776;BME280;885;42.626;23.200;2023-02-15T03:10:39;158640.16;;;1.63;99.72
1776;BME280;885;42.626;23.200;2023-02-15T03:13:07;158264.81;;;1.58;99.23
1776;BME280;885;42.626;23.200;2023-02-15T03:15:37;158288.34;;;1.68;98.39
1776;BME280;885;42.626;23.200;2023-02-15T03:18:22;158300.06;;;1.72;97.74
1776;BME280;885;42.626;23.200;2023-02-15T03:20:51;158300.06;;;1.72;98.78
1776;BME280;885;42.626;23.200;2023-02-15T03:23:22;158283.06;;;1.66;99.42
1776;BME280;885;42.626;23.200;2023-02-15T03:25:52;158658.53;;;1.70;99.40
1776;BME280;885;42.626;23.200;2023-02-15T03:28:25;158596.94;;;1.46;100.00
1776;BME280;885;42.626;23.200;2023-02-15T03:30:55;159053.69;;;1.81;100.00
1776;BME280;885;42.626;23.200;2023-02-15T03:33:26;158692.53;;;1.83;98.94
1776;BME280;885;42.626;23.200;2023-02-15T03:36:01;157454.53;;;1.27;99.44
1776;BME280;885;42.626;23.200;2023-02-15T03:38:34;158187.72;;;1.29;100.00
1776;BME280;885;42.626;23.200;2023-02-15T03:41:04;158963.13;;;1.46;100.00
1776;BME280;885;42.626;23.200;2023-02-15T03:43:42;159354.31;;;1.56;100.00
1776;BME280;885;42.626;23.200;2023-02-15T03:46:17;159364.81;;;1.60;100.00
1776;BME280;885;42.626;23.200;2023-02-15T03:48:49;159022.19;;;1.69;99.14
1776;BME280;885;42.626;23.200;2023-02-15T03:51:21;158991.97;;;1.57;99.57
1776;BME280;885;42.626;23.200;2023-02-15T03:54:06;158999.84;;;1.60;99.50
1776;BME280;885;42.626;23.200;2023-02-15T03:56:34;158982.78;;;1.54;100.00
1776;BME280;885;42.626;23.200;2023-02-15T03:59:02;159002.47;;;1.61;100.00
1776;BME280;885;42.626;23.200;2023-02-15T04:01:54;158579.91;;;1.39;100.00
1776;BME280;885;42.626;23.200;2023-02-15T04:04:30;159296.38;;;1.34;100.00
1776;BME280;885;42.626;23.200;2023-02-15T04:07:00;160064.41;;;1.49;100.00
1776;BME280;885;42.626;23.200;2023-02-15T04:09:26;160084.28;;;1.56;100.00
1776;BME280;885;42.626;23.200;2023-02-15T04:12:11;160086.91;;;1.57;100.00
1776;BME280;885;42.626;23.200;2023-02-15T04:14:38;160084.28;;;1.56;100.00
1776;BME280;885;42.626;23.200;2023-02-15T04:17:22;160465.22;;;1.63;100.00
1776;BME280;885;42.626;23.200;2023-02-15T04:19:49;160105.41;;;1.65;100.00
1776;BME280;885;42.626;23.200;2023-02-15T04:22:35;160116.00;;;1.69;100.00
1776;BME280;885;42.626;23.200;2023-02-15T04:25:19;160129.25;;;1.74;100.00
1776;BME280;885;42.626;23.200;2023-02-15T04:27:48;160118.66;;;1.70;100.00
1776;BME280;885;42.626;23.200;2023-02-15T04:30:17;160123.94;;;1.72;100.00
1776;BME280;885;42.626;23.200;2023-02-15T04:32:44;159724.53;;;1.58;99.85
1776;BME280;885;42.626;23.200;2023-02-15T04:35:11;160102.75;;;1.63;100.00
1776;BME280;885;42.626;23.200;2023-02-15T04:37:43;160057.84;;;1.46;100.00
1776;BME280;885;42.626;23.200;2023-02-15T04:40:12;160440.00;;;1.53;100.00
1776;BME280;885;42.626;23.200;2023-02-15T04:42:39;160447.97;;;1.56;100.00
1776;BME280;885;42.626;23.200;2023-02-15T04:45:06;160454.59;;;1.58;100.00
1776;BME280;885;42.626;23.200;2023-02-15T04:47:33;160838.25;;;1.66;100.00
1776;BME280;885;42.626;23.200;2023-02-15T04:50:00;160819.69;;;1.58;100.00
1776;BME280;885;42.626;23.200;2023-02-15T04:52:27;161192.75;;;1.61;100.00
1776;BME280;885;42.626;23.200;2023-02-15T04:54:55;161176.78;;;1.55;100.00
1776;BME280;885;42.626;23.200;2023-02-15T04:57:22;161531.25;;;1.51;100.00
1776;BME280;885;42.626;23.200;2023-02-15T04:59:48;161456.53;;;1.23;100.00
1776;BME280;885;42.626;23.200;2023-02-15T05:02:15;162225.34;;;1.38;100.00
1776;BME280;885;42.626;23.200;2023-02-15T05:04:42;162993.31;;;1.52;100.00
1776;BME280;885;42.626;23.200;2023-02-15T05:07:08;163013.50;;;1.59;100.00
1776;BME280;885;42.626;23.200;2023-02-15T05:09:35;162994.66;;;1.52;100.00
1776;BME280;885;42.626;23.200;2023-02-15T05:12:04;163005.44;;;1.56;100.00
1776;BME280;885;42.626;23.200;2023-02-15T05:14:30;163035.09;;;1.68;100.00
1776;BME280;885;42.626;23.200;2023-02-15T05:16:57;162613.31;;;1.46;100.00
1776;BME280;885;42.626;23.200;2023-02-15T05:19:26;163641.34;;;1.21;100.00
1776;BME280;885;42.626;23.200;2023-02-15T05:21:53;164028.16;;;1.29;100.00
1776;BME280;885;42.626;23.200;2023-02-15T05:24:20;164434.19;;;1.44;100.00
1776;BME280;885;42.626;23.200;2023-02-15T05:27:07;164458.63;;;1.53;100.00
1776;BME280;885;42.626;23.200;2023-02-15T05:29:51;164470.88;;;1.58;100.00
1776;BME280;885;42.626;23.200;2023-02-15T05:32:18;164120.38;;;1.63;100.00
1776;BME280;885;42.626;23.200;2023-02-15T05:34:45;164066.13;;;1.43;100.00
1776;BME280;885;42.626;23.200;2023-02-15T05:37:11;164076.97;;;1.47;100.00
1776;BME280;885;42.626;23.200;2023-02-15T05:39:38;164113.63;;;1.61;100.00
1776;BME280;885;42.626;23.200;2023-02-15T05:42:06;164129.91;;;1.67;100.00
1776;BME280;885;42.626;23.200;2023-02-15T05:44:33;164144.81;;;1.73;100.00
1776;BME280;885;42.626;23.200;2023-02-15T05:47:00;164151.59;;;1.75;100.00
1776;BME280;885;42.626;23.200;2023-02-15T05:49:28;163750.94;;;1.62;100.00
1776;BME280;885;42.626;23.200;2023-02-15T05:51:55;163736.06;;;1.56;100.00
1776;BME280;885;42.626;23.200;2023-02-15T05:54:22;164112.25;;;1.60;100.00
1776;BME280;885;42.626;23.200;2023-02-15T05:56:49;164139.38;;;1.71;100.00
1776;BME280;885;42.626;23.200;2023-02-15T05:59:17;164157.03;;;1.77;100.00
1776;BME280;885;42.626;23.200;2023-02-15T06:01:44;164500.78;;;1.69;100.00
1776;BME280;885;42.626;23.200;2023-02-15T06:04:11;164526.63;;;1.79;100.00
1776;BME280;885;42.626;23.200;2023-02-15T06:06:38;164548.38;;;1.87;100.00
1776;BME280;885;42.626;23.200;2023-02-15T06:09:05;164567.44;;;1.94;100.00
1776;BME280;885;42.626;23.200;2023-02-15T06:11:32;164589.19;;;2.02;100.00
1776;BME280;885;42.626;23.200;2023-02-15T06:13:58;164228.94;;;2.04;100.00
1776;BME280;885;42.626;23.200;2023-02-15T06:16:26;163817.25;;;1.87;99.59
1776;BME280;885;42.626;23.200;2023-02-15T06:18:53;163392.34;;;1.65;99.81
1776;BME280;885;42.626;23.200;2023-02-15T06:21:20;163400.47;;;1.68;99.79
1776;BME280;885;42.626;23.200;2023-02-15T06:23:47;164204.56;;;1.95;100.00
1776;BME280;885;42.626;23.200;2023-02-15T06:26:13;165040.81;;;2.33;100.00
1776;BME280;885;42.626;23.200;2023-02-15T06:28:40;164726.63;;;2.53;100.00
1776;BME280;885;42.626;23.200;2023-02-15T06:31:07;164357.91;;;2.52;97.85
1776;BME280;885;42.626;23.200;2023-02-15T06:33:35;163600.38;;;2.42;96.91
1776;BME280;885;42.626;23.200;2023-02-15T06:36:02;163196.81;;;2.28;96.86
1776;BME280;885;42.626;23.200;2023-02-15T06:38:32;162398.38;;;2.03;95.75
1776;BME280;885;42.626;23.200;2023-02-15T06:40:58;162390.28;;;2.00;97.51
1776;BME280;885;42.626;23.200;2023-02-15T06:43:25;162785.38;;;2.11;98.25
1776;BME280;885;42.626;23.200;2023-02-15T06:45:52;163177.94;;;2.21;97.71
1776;BME280;885;42.626;23.200;2023-02-15T06:48:18;163204.88;;;2.31;97.31
1776;BME280;885;42.626;23.200;2023-02-15T06:50:46;162855.28;;;2.37;96.34
1776;BME280;885;42.626;23.200;2023-02-15T06:53:14;162876.84;;;2.45;95.69
1776;BME280;885;42.626;23.200;2023-02-15T06:55:41;162895.66;;;2.52;95.36
1776;BME280;885;42.626;23.200;2023-02-15T06:58:08;162525.81;;;2.51;95.19
1776;BME280;885;42.626;23.200;2023-02-15T07:00:34;162533.84;;;2.54;94.41
1776;BME280;885;42.626;23.200;2023-02-15T07:03:02;162161.38;;;2.51;94.84
1776;BME280;885;42.626;23.200;2023-02-15T07:05:28;162173.41;;;2.56;94.37
1776;BME280;885;42.626;23.200;2023-02-15T07:07:57;162200.22;;;2.66;94.71
1776;BME280;885;42.626;23.200;2023-02-15T07:10:24;162220.28;;;2.73;94.30
1776;BME280;885;42.626;23.200;2023-02-15T07:12:51;162225.66;;;2.75;92.96
1776;BME280;885;42.626;23.200;2023-02-15T07:15:18;161851.75;;;2.72;92.59
1776;BME280;885;42.626;23.200;2023-02-15T07:17:47;161441.88;;;2.56;92.08
1776;BME280;885;42.626;23.200;2023-02-15T07:20:16;161499.19;;;2.77;91.48
1776;BME280;885;42.626;23.200;2023-02-15T07:22:43;161137.31;;;2.79;91.19
1776;BME280;885;42.626;23.200;2023-02-15T07:25:13;161132.00;;;2.77;91.57
1776;BME280;885;42.626;23.200;2023-02-15T07:27:40;161140.00;;;2.80;91.35
1776;BME280;885;42.626;23.200;2023-02-15T07:30:09;160782.09;;;2.83;90.17
1776;BME280;885;42.626;23.200;2023-02-15T07:32:36;160764.91;;;2.76;89.84
1776;BME280;885;42.626;23.200;2023-02-15T07:35:23;160407.03;;;2.79;90.33
1776;BME280;885;42.626;23.200;2023-02-15T07:37:50;160415.00;;;2.82;89.93
1776;BME280;885;42.626;23.200;2023-02-15T07:40:19;160432.22;;;2.89;90.06
1776;BME280;885;42.626;23.200;2023-02-15T07:42:48;160424.25;;;2.86;90.15
1776;BME280;885;42.626;23.200;2023-02-15T07:45:17;159638.66;;;2.65;89.40
1776;BME280;885;42.626;23.200;2023-02-15T07:47:43;159643.94;;;2.67;90.20
1776;BME280;885;42.626;23.200;2023-02-15T07:50:10;160026.75;;;2.74;90.13
1776;BME280;885;42.626;23.200;2023-02-15T07:52:37;159667.66;;;2.76;88.67
1776;BME280;885;42.626;23.200;2023-02-15T07:55:04;159688.72;;;2.84;88.76
1776;BME280;885;42.626;23.200;2023-02-15T07:57:32;159319.00;;;2.83;87.88
1776;BME280;885;42.626;23.200;2023-02-15T07:59:59;159294.06;;;2.73;88.48
1776;BME280;885;42.626;23.200;2023-02-15T08:02:25;159304.56;;;2.77;88.80
1776;BME280;885;42.626;23.200;2023-02-15T08:04:54;159288.81;;;2.71;88.17
1776;BME280;885;42.626;23.200;2023-02-15T08:07:21;158928.44;;;2.73;88.32
1776;BME280;885;42.626;23.200;2023-02-15T08:09:47;159332.16;;;2.88;88.74
1776;BME280;885;42.626;23.200;2023-02-15T08:12:14;159721.66;;;2.97;88.97
1776;BME280;885;42.626;23.200;2023-02-15T08:14:42;159740.06;;;3.04;89.81
1776;BME280;885;42.626;23.200;2023-02-15T08:17:09;159746.66;;;3.06;88.56
1776;BME280;885;42.626;23.200;2023-02-15T08:19:36;159365.03;;;3.00;87.49
1776;BME280;885;42.626;23.200;2023-02-15T08:22:04;158965.13;;;2.87;87.95
1776;BME280;885;42.626;23.200;2023-02-15T08:24:32;158975.59;;;2.91;89.13
1776;BME280;885;42.626;23.200;2023-02-15T08:26:59;159370.28;;;3.02;89.06
1776;BME280;885;42.626;23.200;2023-02-15T08:29:30;159376.88;;;3.05;88.98
1776;BME280;885;42.626;23.200;2023-02-15T08:32:00;159395.28;;;3.12;88.12
1776;BME280;885;42.626;23.200;2023-02-15T08:34:29;159016.28;;;3.07;87.61
1776;BME280;885;42.626;23.200;2023-02-15T08:36:56;159035.94;;;3.14;86.97
1776;BME280;885;42.626;23.200;2023-02-15T08:39:23;159425.50;;;3.23;88.67
1776;BME280;885;42.626;23.200;2023-02-15T08:41:50;159849.44;;;3.46;87.50
1776;BME280;885;42.626;23.200;2023-02-15T08:44:18;159492.56;;;3.49;86.33
1776;BME280;885;42.626;23.200;2023-02-15T08:46:47;159093.66;;;3.37;86.65
1776;BME280;885;42.626;23.200;2023-02-15T08:49:17;159105.47;;;3.41;86.52
1776;BME280;885;42.626;23.200;2023-02-15T08:51:44;159084.44;;;3.33;86.12
1776;BME280;885;42.626;23.200;2023-02-15T08:54:14;159100.22;;;3.39;86.08
1776;BME280;885;42.626;23.200;2023-02-15T08:56:42;158722.44;;;3.35;86.25
1776;BME280;885;42.626;23.200;2023-02-15T08:59:13;158717.19;;;3.33;86.75
1776;BME280;885;42.626;23.200;2023-02-15T09:01:40;159127.78;;;3.50;85.97
1776;BME280;885;42.626;23.200;2023-02-15T09:04:07;159163.16;;;3.63;86.34
1776;BME280;885;42.626;23.200;2023-02-15T09:06:36;159193.38;;;3.75;85.56
1776;BME280;885;42.626;23.200;2023-02-15T09:09:03;159209.09;;;3.81;85.55
1776;BME280;885;42.626;23.200;2023-02-15T09:11:33;159231.41;;;3.89;84.98
1776;BME280;885;42.626;23.200;2023-02-15T09:14:02;158869.00;;;3.91;83.54
1776;BME280;885;42.626;23.200;2023-02-15T09:16:31;158840.19;;;3.80;84.31
1776;BME280;885;42.626;23.200;2023-02-15T09:18:59;158866.38;;;3.90;84.24
1776;BME280;885;42.626;23.200;2023-02-15T09:21:28;158901.72;;;4.03;83.27
1776;BME280;885;42.626;23.200;2023-02-15T09:23:58;158937.06;;;4.17;82.91
1776;BME280;885;42.626;23.200;2023-02-15T09:26:27;158942.28;;;4.19;82.29
1776;BME280;885;42.626;23.200;2023-02-15T09:28:57;158979.00;;;4.33;82.07
1776;BME280;885;42.626;23.200;2023-02-15T09:31:25;159023.47;;;4.50;81.44
1776;BME280;885;42.626;23.200;2023-02-15T09:33:52;159437.50;;;4.68;81.15
1776;BME280;885;42.626;23.200;2023-02-15T09:36:22;159469.00;;;4.80;80.60
1776;BME280;885;42.626;23.200;2023-02-15T09:38:54;159504.47;;;4.94;80.67
1776;BME280;885;42.626;23.200;2023-02-15T09:41:36;159123.03;;;4.89;79.98
1776;BME280;885;42.626;23.200;2023-02-15T09:44:16;158754.81;;;4.88;79.14
1776;BME280;885;42.626;23.200;2023-02-15T09:46:59;159134.84;;;4.93;80.15
1776;BME280;885;42.626;23.200;2023-02-15T09:49:34;159147.97;;;4.98;79.70
1776;BME280;885;42.626;23.200;2023-02-15T09:52:31;158402.31;;;4.94;79.00
1776;BME280;885;42.626;23.200;2023-02-15T09:55:15;158395.78;;;4.91;79.22
1776;BME280;885;42.626;23.200;2023-02-15T09:57:51;157976.91;;;4.71;79.52
1776;BME280;885;42.626;23.200;2023-02-15T10:00:26;158371.03;;;4.81;80.07
1776;BME280;885;42.626;23.200;2023-02-15T10:05:58;158417.97;;;5.00;80.25
1776;BME280;885;42.626;23.200;2023-02-15T10:08:45;158831.94;;;5.18;78.93
1776;BME280;885;42.626;23.200;2023-02-15T10:11:23;158483.16;;;5.25;78.18
1776;BME280;885;42.626;23.200;2023-02-15T10:14:21;158909.09;;;5.47;77.38
1776;BME280;885;42.626;23.200;2023-02-15T10:17:00;158965.34;;;5.69;76.63
1776;BME280;885;42.626;23.200;2023-02-15T10:19:39;158610.97;;;5.74;75.97
1776;BME280;885;42.626;23.200;2023-02-15T10:22:20;159026.88;;;5.93;76.28
1776;BME280;885;42.626;23.200;2023-02-15T10:25:04;159079.19;;;6.13;74.92
1776;BME280;885;42.626;23.200;2023-02-15T10:27:45;157895.75;;;5.82;74.58
1776;BME280;885;42.626;23.200;2023-02-15T10:30:15;157485.66;;;5.65;74.57
1776;BME280;885;42.626;23.200;2023-02-15T10:32:54;157479.16;;;5.62;75.64
1776;BME280;885;42.626;23.200;2023-02-15T10:35:32;157525.78;;;5.81;75.14
1776;BME280;885;42.626;23.200;2023-02-15T10:38:15;158346.47;;;6.14;74.87
1776;BME280;885;42.626;23.200;2023-02-15T10:40:54;158783.34;;;6.40;73.73
1776;BME280;885;42.626;23.200;2023-02-15T10:43:39;158058.16;;;6.45;72.47
1776;BME280;885;42.626;23.200;2023-02-15T10:46:19;157248.94;;;6.16;72.38
1776;BME280;885;42.626;23.200;2023-02-15T10:49:11;156862.13;;;6.08;72.26
1776;BME280;885;42.626;23.200;2023-02-15T10:51:52;157272.25;;;6.25;72.68
1776;BME280;885;42.626;23.200;2023-02-15T10:54:31;157724.13;;;6.58;71.60
1776;BME280;885;42.626;23.200;2023-02-15T10:57:04;157391.19;;;6.71;70.64
1776;BME280;885;42.626;23.200;2023-02-15T11:00:05;158259.59;;;7.22;69.15
1776;BME280;885;42.626;23.200;2023-02-15T11:02:50;158782.97;;;7.82;67.13
1776;BME280;885;42.626;23.200;2023-02-15T11:05:37;158926.50;;;8.38;63.97
1776;BME280;885;42.626;23.200;2023-02-15T11:08:07;159075.19;;;8.95;62.32
1776;BME280;885;42.626;23.200;2023-02-15T11:10:38;158050.16;;;9.27;59.36
1776;BME280;885;42.626;23.200;2023-02-15T11:13:09;158963.69;;;9.95;58.83
1776;BME280;885;42.626;23.200;2023-02-15T11:15:41;158705.56;;;10.38;58.01
1776;BME280;885;42.626;23.200;2023-02-15T11:18:14;158053.25;;;10.72;56.16
1776;BME280;885;42.626;23.200;2023-02-15T11:20:46;156132.88;;;10.45;56.33
1776;BME280;885;42.626;23.200;2023-02-15T11:23:16;156636.19;;;10.97;54.59
1776;BME280;885;42.626;23.200;2023-02-15T11:25:46;156409.03;;;11.54;52.54
1776;BME280;885;42.626;23.200;2023-02-15T11:28:19;155408.91;;;11.98;50.62
1776;BME280;885;42.626;23.200;2023-02-15T11:30:51;150655.25;;;10.73;51.14
1776;BME280;885;42.626;23.200;2023-02-15T11:33:24;147015.44;;;9.42;55.30
1776;BME280;885;42.626;23.200;2023-02-15T11:35:57;147019.03;;;9.43;54.60
1776;BME280;885;42.626;23.200;2023-02-15T11:38:29;149429.03;;;10.25;54.24
1776;BME280;885;42.626;23.200;2023-02-15T11:41:01;149079.22;;;10.33;53.44
1776;BME280;885;42.626;23.200;2023-02-15T11:43:34;146315.38;;;9.57;55.18
1776;BME280;885;42.626;23.200;2023-02-15T11:46:05;147908.56;;;10.07;55.01
1776;BME280;885;42.626;23.200;2023-02-15T11:48:35;151201.53;;;11.45;51.98
1776;BME280;885;42.626;23.200;2023-02-15T11:51:02;152150.56;;;12.30;48.94
1776;BME280;885;42.626;23.200;2023-02-15T11:53:32;152738.19;;;13.17;46.83
1776;BME280;885;42.626;23.200;2023-02-15T11:56:00;152532.19;;;13.84;45.04
1776;BME280;885;42.626;23.200;2023-02-15T11:58:33;150383.16;;;14.17;43.65
1776;BME280;885;42.626;23.200;2023-02-15T12:01:09;149753.06;;;14.64;43.09
1776;BME280;885;42.626;23.200;2023-02-15T12:03:43;147509.84;;;14.59;42.16
1776;BME280;885;42.626;23.200;2023-02-15T12:06:16;145238.63;;;14.42;42.46
1776;BME280;885;42.626;23.200;2023-02-15T12:08:50;143290.94;;;14.02;43.31
1776;BME280;885;42.626;23.200;2023-02-15T12:11:21;139355.66;;;13.02;45.28
1776;BME280;885;42.626;23.200;2023-02-15T12:13:57;139757.59;;;13.16;45.16
1776;BME280;885;42.626;23.200;2023-02-15T12:16:24;132322.16;;;11.25;48.23
1776;BME280;885;42.626;23.200;2023-02-15T12:18:55;131492.47;;;10.81;50.41
1776;BME280;885;42.626;23.200;2023-02-15T12:21:28;134608.50;;;11.60;49.30
1776;BME280;885;42.626;23.200;2023-02-15T12:24:00;137770.38;;;12.54;48.12
1776;BME280;885;42.626;23.200;2023-02-15T12:26:29;140988.59;;;13.69;45.42
1776;BME280;885;42.626;23.200;2023-02-15T12:28:58;137501.28;;;13.00;45.59
1776;BME280;885;42.626;23.200;2023-02-15T12:31:31;128505.38;;;10.60;49.76
1776;BME280;885;42.626;23.200;2023-02-15T12:34:03;129220.81;;;10.51;51.36
1776;BME280;885;42.626;23.200;2023-02-15T12:36:42;133916.75;;;11.81;49.30
1776;BME280;885;42.626;23.200;2023-02-15T12:39:22;140254.31;;;13.72;45.82
1776;BME280;885;42.626;23.200;2023-02-15T12:42:00;140732.31;;;14.19;44.07
1776;BME280;885;42.626;23.200;2023-02-15T12:44:28;135654.44;;;13.01;44.76
1776;BME280;885;42.626;23.200;2023-02-15T12:46:57;127853.19;;;11.00;48.83
1776;BME280;885;42.626;23.200;2023-02-15T12:49:26;133267.81;;;12.22;47.45
1776;BME280;885;42.626;23.200;2023-02-15T12:51:55;139209.41;;;14.01;44.52
1776;BME280;885;42.626;23.200;2023-02-15T12:54:35;141643.25;;;14.93;42.64
1776;BME280;885;42.626;23.200;2023-02-15T12:57:28;143317.66;;;15.74;40.98
1776;BME280;885;42.626;23.200;2023-02-15T12:59:57;143800.56;;;16.22;39.96
1776;BME280;885;42.626;23.200;2023-02-15T13:02:27;141581.72;;;16.29;38.61
1776;BME280;885;42.626;23.200;2023-02-15T13:04:56;134520.28;;;14.60;40.84
1776;BME280;885;42.626;23.200;2023-02-15T13:07:31;139662.06;;;16.03;40.08
1776;BME280;885;42.626;23.200;2023-02-15T13:09:58;141363.03;;;16.96;38.27
1776;BME280;885;42.626;23.200;2023-02-15T13:12:27;141891.94;;;17.65;37.13
1776;BME280;885;42.626;23.200;2023-02-15T13:14:58;138438.03;;;17.21;36.96
1776;BME280;885;42.626;23.200;2023-02-15T13:17:30;136939.41;;;17.17;36.70
1776;BME280;885;42.626;23.200;2023-02-15T13:20:04;138614.03;;;18.00;36.08
1776;BME280;885;42.626;23.200;2023-02-15T13:22:37;139877.97;;;18.64;36.06
1776;BME280;885;42.626;23.200;2023-02-15T13:25:12;140053.41;;;19.42;34.50
1776;BME280;885;42.626;23.200;2023-02-15T13:27:42;138637.19;;;19.78;33.91
1776;BME280;885;42.626;23.200;2023-02-15T13:30:22;137164.41;;;19.89;34.04
1776;BME280;885;42.626;23.200;2023-02-15T13:32:54;136897.56;;;20.37;32.96
1776;BME280;885;42.626;23.200;2023-02-15T13:35:24;136664.25;;;21.02;32.19
1776;BME280;885;42.626;23.200;2023-02-15T13:38:02;134826.22;;;21.18;31.99
1776;BME280;885;42.626;23.200;2023-02-15T13:40:36;133775.88;;;21.52;31.37
1776;BME280;885;42.626;23.200;2023-02-15T13:43:15;131945.31;;;21.72;30.85
1776;BME280;885;42.626;23.200;2023-02-15T13:45:56;130456.47;;;21.77;30.81
1776;BME280;885;42.626;23.200;2023-02-15T13:48:36;128194.44;;;21.69;30.96
1776;BME280;885;42.626;23.200;2023-02-15T13:51:13;126724.09;;;21.82;30.78
1776;BME280;885;42.626;23.200;2023-02-15T13:53:59;124839.31;;;21.75;30.88